createdAt,value
2018-12-30T00:00:58.314Z,5.84
2018-12-30T00:03:29.270Z,5.79
2018-12-30T00:06:00.801Z,5.80
2018-12-30T00:08:32.349Z,5.82
2018-12-30T00:11:03.261Z,5.80
2018-12-30T00:13:34.866Z,5.79
2018-12-30T00:16:06.428Z,5.82
2018-12-30T00:18:37.328Z,5.75
2018-12-30T00:21:09.176Z,5.66
2018-12-30T00:23:40.609Z,5.66
2018-12-30T00:26:11.423Z,5.60
2018-12-30T00:28:42.360Z,5.56
2018-12-30T00:31:13.208Z,5.54
2018-12-30T00:33:44.439Z,5.55
2018-12-30T00:36:15.363Z,5.52
2018-12-30T00:38:46.221Z,5.43
2018-12-30T00:41:17.211Z,5.43
2018-12-30T00:43:48.923Z,5.41
2018-12-30T00:46:21.360Z,5.42
2018-12-30T00:48:52.410Z,5.42
2018-12-30T00:51:23.269Z,5.33
2018-12-30T00:53:54.161Z,5.33
2018-12-30T00:56:25.105Z,5.38
2018-12-30T00:58:56.296Z,5.42
2018-12-30T01:01:27.473Z,5.38
2018-12-30T01:03:58.311Z,5.41
2018-12-30T01:06:29.435Z,5.38
2018-12-30T01:09:00.402Z,5.36
2018-12-30T01:11:31.224Z,5.42
2018-12-30T01:14:02.306Z,5.51
2018-12-30T01:16:33.167Z,5.53
2018-12-30T01:19:04.324Z,5.50
2018-12-30T01:21:35.377Z,5.46
2018-12-30T01:24:06.404Z,5.52
2018-12-30T01:26:37.469Z,5.48
2018-12-30T01:29:08.298Z,5.52
2018-12-30T01:31:40.330Z,5.43
2018-12-30T01:34:11.273Z,5.44
2018-12-30T01:36:42.210Z,5.38
2018-12-30T01:39:13.243Z,5.46
2018-12-30T01:41:44.117Z,5.48
2018-12-30T01:44:15.581Z,5.49
2018-12-30T01:46:46.516Z,5.46
2018-12-30T01:49:17.405Z,5.45
2018-12-30T01:51:48.534Z,5.46
2018-12-30T01:54:19.885Z,5.39
2018-12-30T01:56:51.009Z,5.34
2018-12-30T01:59:22.081Z,5.45
2018-12-30T02:01:53.079Z,5.37
2018-12-30T02:04:24.608Z,5.35
2018-12-30T02:06:55.816Z,5.38
2018-12-30T02:09:26.945Z,5.38
2018-12-30T02:11:58.145Z,5.39
2018-12-30T02:14:29.310Z,5.39
2018-12-30T02:17:01.493Z,5.32
2018-12-30T02:19:32.367Z,5.32
2018-12-30T02:22:03.242Z,5.27
2018-12-30T02:24:34.235Z,5.26
2018-12-30T02:27:05.576Z,5.22
2018-12-30T02:29:36.697Z,5.24
2018-12-30T02:32:07.550Z,5.20
2018-12-30T02:34:38.411Z,5.22
2018-12-30T02:37:09.421Z,5.22
2018-12-30T02:39:40.340Z,5.23
2018-12-30T02:42:11.306Z,5.20
2018-12-30T02:44:42.325Z,5.22
2018-12-30T02:47:13.341Z,5.18
2018-12-30T02:49:44.342Z,5.12
2018-12-30T02:52:15.250Z,5.16
2018-12-30T02:54:46.405Z,5.15
2018-12-30T02:57:17.287Z,5.14
2018-12-30T02:59:48.775Z,5.13
2018-12-30T03:02:20.026Z,5.08
2018-12-30T03:04:51.073Z,5.01
2018-12-30T03:07:21.969Z,5.03
2018-12-30T03:09:53.260Z,5.03
2018-12-30T03:12:24.210Z,4.98
2018-12-30T03:14:55.302Z,4.96
2018-12-30T03:17:26.410Z,4.97
2018-12-30T03:19:58.362Z,4.97
2018-12-30T03:22:29.311Z,5.00
2018-12-30T03:25:00.349Z,5.01
2018-12-30T03:27:31.207Z,5.01
2018-12-30T03:30:02.351Z,4.97
2018-12-30T03:32:33.316Z,5.00
2018-12-30T03:35:04.428Z,4.99
2018-12-30T03:37:35.286Z,5.02
2018-12-30T03:40:07.891Z,4.94
2018-12-30T03:42:40.316Z,5.00
2018-12-30T03:45:11.248Z,5.00
2018-12-30T03:47:42.168Z,4.94
2018-12-30T03:50:13.077Z,4.95
2018-12-30T03:52:44.357Z,5.01
2018-12-30T03:55:15.217Z,4.93
2018-12-30T03:57:46.276Z,4.95
2018-12-30T04:00:17.375Z,4.93
2018-12-30T04:02:49.353Z,4.94
2018-12-30T04:05:20.275Z,4.98
2018-12-30T04:07:51.105Z,4.99
2018-12-30T04:10:21.982Z,4.94
2018-12-30T04:12:53.178Z,4.94
2018-12-30T04:15:24.030Z,4.99
2018-12-30T04:17:55.325Z,4.96
2018-12-30T04:20:26.201Z,5.04
2018-12-30T04:22:57.334Z,4.93
2018-12-30T04:25:28.350Z,4.91
2018-12-30T04:27:59.173Z,4.85
2018-12-30T04:30:30.152Z,4.87
2018-12-30T04:33:01.397Z,4.84
2018-12-30T04:35:32.253Z,4.83
2018-12-30T04:38:03.349Z,4.79
2018-12-30T04:40:34.291Z,4.81
2018-12-30T04:43:05.515Z,4.78
2018-12-30T04:45:36.448Z,4.79
2018-12-30T04:48:07.268Z,4.83
2018-12-30T04:50:39.865Z,4.78
2018-12-30T04:53:11.202Z,4.77
2018-12-30T04:55:42.407Z,4.82
2018-12-30T04:58:13.272Z,4.79
2018-12-30T05:00:44.124Z,4.79
2018-12-30T05:03:15.316Z,4.77
2018-12-30T05:05:46.264Z,4.78
2018-12-30T05:08:17.279Z,4.81
2018-12-30T05:10:48.125Z,4.83
2018-12-30T05:13:19.403Z,4.80
2018-12-30T05:15:50.457Z,4.85
2018-12-30T05:18:21.276Z,4.86
2018-12-30T05:20:52.419Z,4.89
2018-12-30T05:23:23.422Z,4.90
2018-12-30T05:25:54.316Z,4.84
2018-12-30T05:28:25.229Z,4.88
2018-12-30T05:30:56.066Z,4.89
2018-12-30T05:33:27.122Z,4.93
2018-12-30T05:35:58.209Z,4.92
2018-12-30T05:38:29.064Z,4.92
2018-12-30T05:40:59.995Z,4.91
2018-12-30T05:43:32.314Z,4.87
2018-12-30T05:46:03.233Z,4.90
2018-12-30T05:48:34.292Z,4.93
2018-12-30T05:51:05.152Z,4.96
2018-12-30T05:53:36.535Z,4.99
2018-12-30T05:56:07.671Z,4.99
2018-12-30T05:58:38.837Z,4.99
2018-12-30T06:01:10.050Z,4.95
2018-12-30T06:03:41.239Z,4.98
2018-12-30T06:06:12.262Z,4.98
2018-12-30T06:08:43.106Z,5.00
2018-12-30T06:11:14.088Z,4.99
2018-12-30T06:13:45.078Z,4.99
2018-12-30T06:16:16.229Z,5.07
2018-12-30T06:18:47.467Z,5.05
2018-12-30T06:21:18.325Z,5.06
2018-12-30T06:23:49.372Z,5.06
2018-12-30T06:26:20.515Z,5.04
2018-12-30T06:28:51.374Z,5.08
2018-12-30T06:31:22.520Z,5.11
2018-12-30T06:33:53.370Z,5.13
2018-12-30T06:36:24.736Z,5.13
2018-12-30T06:38:56.036Z,5.15
2018-12-30T06:41:27.203Z,5.17
2018-12-30T06:43:58.204Z,5.18
2018-12-30T06:46:29.283Z,5.19
2018-12-30T06:49:00.239Z,5.21
2018-12-30T06:51:31.210Z,5.22
2018-12-30T06:54:06.851Z,5.24
2018-12-30T06:56:38.284Z,5.26
2018-12-30T06:59:09.137Z,5.22
2018-12-30T07:01:39.995Z,5.23
2018-12-30T07:04:11.225Z,5.22
2018-12-30T07:06:42.090Z,5.21
2018-12-30T07:09:13.359Z,5.23
2018-12-30T07:11:44.178Z,5.24
2018-12-30T07:14:15.007Z,5.27
2018-12-30T07:16:46.088Z,5.24
2018-12-30T07:19:17.003Z,5.25
2018-12-30T07:21:48.133Z,5.24
2018-12-30T07:24:18.965Z,5.26
2018-12-30T07:26:50.649Z,5.28
2018-12-30T07:29:21.846Z,5.29
2018-12-30T07:31:53.058Z,5.30
2018-12-30T07:34:24.309Z,5.33
2018-12-30T07:36:55.286Z,5.31
2018-12-30T07:39:26.149Z,5.36
2018-12-30T07:41:57.078Z,5.42
2018-12-30T07:44:28.027Z,5.37
2018-12-30T07:46:59.627Z,5.39
2018-12-30T07:49:30.486Z,5.43
2018-12-30T07:52:03.059Z,5.40
2018-12-30T07:54:34.223Z,5.41
2018-12-30T07:57:05.070Z,5.43
2018-12-30T07:59:36.448Z,5.46
2018-12-30T08:02:07.305Z,5.49
2018-12-30T08:04:38.148Z,5.48
2018-12-30T08:07:09.077Z,5.49
2018-12-30T08:09:40.242Z,5.47
2018-12-30T08:12:11.293Z,5.48
2018-12-30T08:14:42.498Z,5.54
2018-12-30T08:17:13.709Z,5.51
2018-12-30T08:19:44.552Z,5.52
2018-12-30T08:22:15.481Z,5.57
2018-12-30T08:24:46.314Z,5.61
2018-12-30T08:27:17.577Z,5.66
2018-12-30T08:29:48.428Z,5.60
2018-12-30T08:32:19.252Z,5.64
2018-12-30T08:34:50.715Z,5.64
2018-12-30T08:37:22.009Z,5.69
2018-12-30T08:39:53.271Z,5.66
2018-12-30T08:42:24.264Z,5.72
2018-12-30T08:44:55.115Z,5.74
2018-12-30T08:47:26.154Z,5.75
2018-12-30T08:49:57.245Z,5.72
2018-12-30T08:52:28.347Z,5.72
2018-12-30T08:54:59.347Z,5.70
2018-12-30T08:57:30.235Z,5.66
2018-12-30T09:00:02.093Z,5.69
2018-12-30T09:02:34.410Z,5.69
2018-12-30T09:05:05.581Z,5.67
2018-12-30T09:07:36.791Z,5.68
2018-12-30T09:10:08.198Z,5.67
2018-12-30T09:12:39.125Z,5.69
2018-12-30T09:15:10.338Z,5.68
2018-12-30T09:17:41.368Z,5.72
2018-12-30T09:20:12.306Z,5.75
2018-12-30T09:22:43.300Z,5.83
2018-12-30T09:25:14.245Z,5.83
2018-12-30T09:27:45.136Z,5.82
2018-12-30T09:30:16.127Z,5.80
2018-12-30T09:32:47.267Z,5.88
2018-12-30T09:35:18.218Z,5.88
2018-12-30T09:37:49.118Z,5.89
2018-12-30T09:40:19.985Z,5.88
2018-12-30T09:42:51.262Z,5.86
2018-12-30T09:45:22.433Z,5.86
2018-12-30T09:47:53.279Z,5.90
2018-12-30T09:50:24.281Z,5.90
2018-12-30T09:52:55.187Z,5.92
2018-12-30T09:55:26.736Z,5.94
2018-12-30T09:57:57.940Z,5.96
2018-12-30T10:00:29.302Z,5.99
2018-12-30T10:03:00.284Z,6.02
2018-12-30T10:05:31.327Z,6.04
2018-12-30T10:08:02.448Z,6.04
2018-12-30T10:10:33.333Z,6.10
2018-12-30T10:13:04.271Z,6.13
2018-12-30T10:15:35.284Z,6.15
2018-12-30T10:18:06.263Z,6.17
2018-12-30T10:20:37.519Z,6.17
2018-12-30T10:23:08.392Z,6.19
2018-12-30T10:25:39.375Z,6.19
2018-12-30T10:28:10.502Z,6.27
2018-12-30T10:30:41.400Z,6.27
2018-12-30T10:33:12.483Z,6.31
2018-12-30T10:35:43.375Z,6.35
2018-12-30T10:38:14.358Z,6.39
2018-12-30T10:40:45.363Z,6.44
2018-12-30T10:43:16.378Z,6.47
2018-12-30T10:45:47.348Z,6.51
2018-12-30T10:48:18.398Z,6.58
2018-12-30T10:50:49.379Z,6.63
2018-12-30T10:53:20.313Z,6.67
2018-12-30T10:55:51.336Z,6.72
2018-12-30T10:58:22.300Z,6.75
2018-12-30T11:00:53.551Z,6.78
2018-12-30T11:03:24.435Z,6.79
2018-12-30T11:05:55.373Z,6.82
2018-12-30T11:08:26.615Z,6.84
2018-12-30T11:10:57.798Z,6.86
2018-12-30T11:13:30.634Z,6.88
2018-12-30T11:16:01.851Z,6.90
2018-12-30T11:18:33.156Z,6.91
2018-12-30T11:21:04.110Z,6.92
2018-12-30T11:23:34.980Z,6.93
2018-12-30T11:26:06.492Z,6.95
2018-12-30T11:28:37.504Z,6.97
2018-12-30T11:31:08.533Z,7.01
2018-12-30T11:33:39.523Z,7.02
2018-12-30T11:36:11.703Z,7.03
2018-12-30T11:38:43.120Z,7.09
2018-12-30T11:41:14.101Z,7.11
2018-12-30T11:43:45.443Z,7.12
2018-12-30T11:46:17.066Z,7.13
2018-12-30T11:48:47.965Z,7.15
2018-12-30T11:51:19.863Z,7.12
2018-12-30T11:53:51.283Z,7.13
2018-12-30T11:56:22.328Z,7.13
2018-12-30T11:58:53.340Z,7.07
2018-12-30T12:01:24.347Z,7.03
2018-12-30T12:03:55.392Z,7.02
2018-12-30T12:06:26.330Z,7.01
2018-12-30T12:08:57.348Z,6.96
2018-12-30T12:11:28.337Z,6.92
2018-12-30T12:13:59.267Z,6.91
2018-12-30T12:16:30.477Z,6.88
2018-12-30T12:19:02.423Z,6.89
2018-12-30T12:21:33.288Z,6.84
2018-12-30T12:24:04.218Z,6.87
2018-12-30T12:26:39.874Z,6.80
2018-12-30T12:29:12.230Z,6.79
2018-12-30T12:31:43.080Z,6.75
2018-12-30T12:34:14.612Z,6.70
2018-12-30T12:36:45.587Z,6.66
2018-12-30T12:39:16.496Z,6.66
2018-12-30T12:45:07.652Z,6.63
2018-12-30T12:47:41.835Z,6.63
2018-12-30T12:50:13.799Z,6.55
2018-12-30T12:52:44.553Z,6.50
2018-12-30T12:55:15.097Z,6.47
2018-12-30T12:57:45.835Z,6.40
2018-12-30T13:00:16.740Z,6.34
2018-12-30T13:02:47.426Z,6.30
2018-12-30T13:05:17.861Z,6.28
2018-12-30T13:07:48.593Z,6.23
2018-12-30T13:10:19.023Z,6.22
2018-12-30T13:12:50.281Z,6.19
2018-12-30T13:15:20.716Z,6.13
2018-12-30T13:17:54.000Z,6.10
2018-12-30T13:20:24.858Z,6.10
2018-12-30T13:22:55.626Z,6.03
2018-12-30T13:25:26.444Z,6.03
2018-12-30T13:27:56.955Z,5.97
2018-12-30T13:30:27.748Z,5.91
2018-12-30T13:32:58.362Z,5.89
2018-12-30T13:35:28.787Z,5.89
2018-12-30T13:37:59.930Z,5.81
2018-12-30T13:40:30.541Z,5.77
2018-12-30T13:43:01.148Z,5.72
2018-12-30T13:45:32.339Z,5.63
2018-12-30T13:48:05.046Z,5.63
2018-12-30T13:50:35.958Z,5.56
2018-12-30T13:53:06.737Z,5.56
2018-12-30T13:55:37.470Z,5.55
2018-12-30T13:58:08.127Z,5.53
2018-12-30T14:00:38.801Z,5.47
2018-12-30T14:03:09.619Z,5.54
2018-12-30T14:05:40.078Z,5.53
2018-12-30T14:08:10.551Z,5.54
2018-12-30T14:10:41.034Z,5.54
2018-12-30T14:13:12.165Z,5.53
2018-12-30T14:15:50.652Z,5.48
2018-12-30T14:18:15.479Z,5.44
2018-12-30T14:20:45.906Z,5.42
2018-12-30T14:23:16.657Z,5.36
2018-12-30T14:25:47.399Z,5.35
2018-12-30T14:28:17.970Z,5.36
2018-12-30T14:30:48.681Z,5.36
2018-12-30T14:33:19.181Z,5.36
2018-12-30T14:35:49.867Z,5.35
2018-12-30T14:38:20.672Z,5.37
2018-12-30T14:40:51.587Z,5.36
2018-12-30T14:43:22.037Z,5.36
2018-12-30T14:45:52.633Z,5.35
2018-12-30T14:48:23.498Z,5.35
2018-12-30T14:50:54.098Z,5.33
2018-12-30T14:53:25.012Z,5.35
2018-12-30T14:55:56.043Z,5.37
2018-12-30T14:58:28.106Z,5.37
2018-12-30T15:00:59.141Z,5.35
2018-12-30T15:03:30.026Z,5.32
2018-12-30T15:06:00.970Z,5.32
2018-12-30T15:08:31.948Z,5.30
2018-12-30T15:11:04.201Z,5.27
2018-12-30T15:13:35.083Z,5.27
2018-12-30T15:16:05.859Z,5.28
2018-12-30T15:18:36.537Z,5.25
2018-12-30T15:21:07.359Z,5.23
2018-12-30T15:23:38.046Z,5.23
2018-12-30T15:26:08.869Z,5.24
2018-12-30T15:28:40.874Z,5.24
2018-12-30T15:31:12.399Z,5.25
2018-12-30T15:33:43.356Z,5.26
2018-12-30T15:36:15.211Z,5.27
2018-12-30T15:38:58.211Z,5.24
2018-12-30T15:41:32.032Z,5.24
2018-12-30T15:47:44.698Z,5.25
2018-12-30T15:50:15.248Z,5.25
2018-12-30T15:52:46.479Z,5.23
2018-12-30T15:55:19.605Z,5.26
2018-12-30T15:57:50.069Z,5.28
2018-12-30T16:00:36.163Z,5.30
2018-12-30T16:03:49.972Z,5.29
2018-12-30T16:06:27.269Z,5.24
2018-12-30T16:09:18.814Z,5.24
2018-12-30T16:11:49.866Z,5.26
2018-12-30T16:14:20.620Z,5.25
2018-12-30T16:16:51.649Z,5.24
2018-12-30T16:19:23.120Z,5.23
2018-12-30T16:21:53.572Z,5.24
2018-12-30T16:24:24.088Z,5.27
2018-12-30T16:26:54.544Z,5.27
2018-12-30T16:29:24.983Z,5.30
2018-12-30T16:31:55.738Z,5.34
2018-12-30T16:34:26.691Z,5.36
2018-12-30T16:36:57.519Z,5.39
2018-12-30T16:39:27.994Z,5.38
2018-12-30T16:42:00.628Z,5.40
2018-12-30T16:44:31.144Z,5.40
2018-12-30T16:47:02.108Z,5.42
2018-12-30T16:49:32.916Z,5.44
2018-12-30T16:52:04.044Z,5.43
2018-12-30T16:54:34.872Z,5.42
2018-12-30T16:57:05.681Z,5.43
2018-12-30T16:59:36.122Z,5.44
2018-12-30T17:02:07.650Z,5.45
2018-12-30T17:04:38.222Z,5.45
2018-12-30T17:07:08.884Z,5.45
2018-12-30T17:09:39.693Z,5.46
2018-12-30T17:12:10.454Z,5.44
2018-12-30T17:14:41.039Z,5.44
2018-12-30T17:17:11.628Z,5.44
2018-12-30T17:19:42.400Z,5.42
2018-12-30T17:22:12.982Z,5.40
2018-12-30T17:24:43.711Z,5.39
2018-12-30T17:27:15.799Z,5.38
2018-12-30T17:29:46.925Z,5.38
2018-12-30T17:32:17.629Z,5.39
2018-12-30T17:34:49.768Z,5.38
2018-12-30T17:37:22.458Z,5.40
2018-12-30T17:39:53.298Z,5.40
2018-12-30T17:42:23.950Z,5.37
2018-12-30T17:44:54.655Z,5.72
2018-12-30T17:47:29.729Z,6.48
2018-12-30T17:50:05.296Z,6.51
2018-12-30T17:52:37.115Z,6.32
2018-12-30T17:55:08.132Z,6.05
2018-12-30T17:57:41.430Z,5.82
2018-12-30T18:00:12.305Z,5.68
2018-12-30T18:02:43.307Z,5.60
2018-12-30T18:05:14.991Z,5.57
2018-12-30T18:07:45.759Z,5.47
2018-12-30T18:10:16.506Z,5.48
2018-12-30T18:12:46.974Z,5.48
2018-12-30T18:15:17.820Z,5.48
2018-12-30T18:17:49.004Z,5.49
2018-12-30T18:20:19.891Z,5.46
2018-12-30T18:22:50.517Z,5.47
2018-12-30T18:25:21.890Z,5.48
2018-12-30T18:27:52.665Z,5.52
2018-12-30T18:30:23.133Z,5.51
2018-12-30T18:32:54.171Z,5.52
2018-12-30T18:35:24.997Z,5.55
2018-12-30T18:37:56.182Z,5.55
2018-12-30T18:40:27.279Z,5.57
2018-12-30T18:42:58.150Z,5.58
2018-12-30T18:45:29.103Z,5.60
2018-12-30T18:47:59.957Z,5.62
2018-12-30T18:50:30.390Z,5.64
2018-12-30T18:53:01.445Z,5.61
2018-12-30T18:55:31.908Z,5.58
2018-12-30T18:58:02.884Z,5.59
2018-12-30T19:00:34.124Z,5.60
2018-12-30T19:03:04.896Z,5.60
2018-12-30T19:05:35.665Z,5.61
2018-12-30T19:08:06.419Z,5.61
2018-12-30T19:10:37.309Z,5.60
2018-12-30T19:13:07.727Z,5.62
2018-12-30T19:15:38.461Z,5.63
2018-12-30T19:18:08.974Z,5.62
2018-12-30T19:20:39.521Z,5.60
2018-12-30T19:23:10.138Z,5.57
2018-12-30T19:25:41.736Z,5.59
2018-12-30T19:28:12.737Z,5.57
2018-12-30T19:30:50.751Z,5.59
2018-12-30T19:33:21.474Z,5.61
2018-12-30T19:35:52.175Z,5.61
2018-12-30T19:38:22.670Z,5.60
2018-12-30T19:40:53.506Z,5.60
2018-12-30T19:43:24.321Z,5.63
2018-12-30T19:45:54.804Z,5.63
2018-12-30T19:48:33.601Z,5.61
2018-12-30T19:51:04.193Z,5.57
2018-12-30T19:53:34.826Z,5.55
2018-12-30T19:56:05.791Z,5.56
2018-12-30T19:58:36.590Z,5.55
2018-12-30T20:01:07.185Z,5.55
2018-12-30T20:03:37.986Z,5.54
2018-12-30T20:06:08.632Z,5.53
2018-12-30T20:08:39.218Z,5.47
2018-12-30T20:11:09.977Z,5.48
2018-12-30T20:13:40.937Z,5.52
2018-12-30T20:16:11.868Z,5.49
2018-12-30T20:18:42.575Z,5.48
2018-12-30T20:21:13.363Z,5.51
2018-12-30T20:23:43.938Z,5.51
2018-12-30T20:26:14.702Z,5.48
2018-12-30T20:28:45.530Z,5.46
2018-12-30T20:31:15.998Z,5.45
2018-12-30T20:33:48.484Z,5.42
2018-12-30T20:36:18.970Z,5.35
2018-12-30T20:38:49.782Z,5.31
2018-12-30T20:41:20.677Z,5.21
2018-12-30T20:43:51.466Z,5.15
2018-12-30T20:46:22.169Z,5.12
2018-12-30T20:48:52.667Z,5.08
2018-12-30T20:51:23.321Z,5.06
2018-12-30T20:53:55.046Z,5.02
2018-12-30T20:56:25.695Z,4.96
2018-12-30T20:58:56.579Z,4.99
2018-12-30T21:01:27.258Z,4.99
2018-12-30T21:03:58.000Z,5.02
2018-12-30T21:06:28.896Z,5.02
2018-12-30T21:08:59.720Z,4.98
2018-12-30T21:11:30.642Z,4.95
2018-12-30T21:14:01.281Z,4.96
2018-12-30T21:16:32.041Z,4.97
2018-12-30T21:19:04.499Z,4.97
2018-12-30T21:21:34.959Z,4.98
2018-12-30T21:24:05.977Z,4.98
2018-12-30T21:26:36.994Z,5.00
2018-12-30T21:29:07.776Z,4.99
2018-12-30T21:31:38.515Z,5.02
2018-12-30T21:34:08.908Z,4.99
2018-12-30T21:36:39.837Z,5.01
2018-12-30T21:39:10.893Z,5.04
2018-12-30T21:41:42.213Z,5.01
2018-12-30T21:44:12.960Z,5.01
2018-12-30T21:46:43.723Z,5.01
2018-12-30T21:49:16.932Z,5.01
2018-12-30T21:51:47.594Z,5.00
2018-12-30T21:54:18.991Z,5.02
2018-12-30T21:56:54.714Z,4.98
2018-12-30T21:59:21.800Z,4.97
2018-12-30T22:01:52.664Z,4.98
2018-12-30T22:04:23.077Z,4.99
2018-12-30T22:06:53.589Z,4.97
2018-12-30T22:09:24.038Z,4.96
2018-12-30T22:11:54.720Z,4.95
2018-12-30T22:14:26.700Z,4.94
2018-12-30T22:16:57.046Z,4.98
2018-12-30T22:19:27.449Z,4.97
2018-12-30T22:21:57.968Z,4.97
2018-12-30T22:24:28.486Z,4.94
2018-12-30T22:26:58.887Z,4.90
2018-12-30T22:29:29.553Z,4.89
2018-12-30T22:31:59.947Z,4.88
2018-12-30T22:34:31.032Z,4.79
2018-12-30T22:37:01.644Z,4.81
2018-12-30T22:39:32.003Z,4.81
2018-12-30T22:42:02.735Z,4.78
2018-12-30T22:44:33.087Z,4.78
2018-12-30T22:47:03.751Z,4.80
2018-12-30T22:49:34.505Z,4.80
2018-12-30T22:52:04.988Z,4.79
2018-12-30T22:54:35.702Z,4.81
2018-12-30T22:57:06.079Z,4.81
2018-12-30T22:59:36.521Z,4.82
2018-12-30T23:02:06.942Z,4.83
2018-12-30T23:04:37.588Z,4.85
2018-12-30T23:07:08.140Z,4.85
2018-12-30T23:09:38.562Z,4.84
2018-12-30T23:12:08.982Z,4.85
2018-12-30T23:14:39.658Z,4.85
2018-12-30T23:17:10.017Z,4.87
2018-12-30T23:19:40.801Z,4.88
2018-12-30T23:22:11.536Z,4.89
2018-12-30T23:24:41.904Z,4.90
2018-12-30T23:27:12.536Z,4.90
2018-12-30T23:29:42.926Z,4.90
2018-12-30T23:32:13.635Z,4.90
2018-12-30T23:34:44.059Z,4.90
2018-12-30T23:37:14.679Z,4.93
2018-12-30T23:39:45.138Z,4.92
2018-12-30T23:42:15.876Z,4.92
2018-12-30T23:44:46.733Z,4.92
2018-12-30T23:47:17.393Z,4.89
2018-12-30T23:49:47.732Z,4.89
2018-12-30T23:52:18.443Z,4.87
2018-12-30T23:54:48.806Z,4.89
2018-12-30T23:57:19.768Z,4.88
2018-12-30T23:59:50.421Z,4.88
